createdAt,value
2023-02-05T00:02:52.922Z,-4.56
2023-02-05T00:05:57.392Z,-4.96
2023-02-05T00:09:01.895Z,-4.90
2023-02-05T00:12:06.943Z,-5.15
2023-02-05T00:15:11.563Z,-5.12
2023-02-05T00:18:16.076Z,-4.73
2023-02-05T00:21:22.711Z,-4.49
2023-02-05T00:24:27.369Z,-4.59
2023-02-05T00:27:33.410Z,-4.62
2023-02-05T00:30:41.063Z,-4.86
2023-02-05T00:33:46.403Z,-4.93
2023-02-05T00:36:50.911Z,-4.96
2023-02-05T00:39:55.445Z,-5.20
2023-02-05T00:42:59.912Z,-4.82
2023-02-05T00:46:04.643Z,-4.74
2023-02-05T00:49:09.159Z,-4.79
2023-02-05T00:52:15.497Z,-4.72
2023-02-05T00:55:20.057Z,-4.93
2023-02-05T00:58:25.061Z,-5.12
2023-02-05T01:01:29.645Z,-4.76
2023-02-05T01:04:34.212Z,-4.92
2023-02-05T01:07:39.010Z,-5.02
2023-02-05T01:10:48.586Z,-4.92
2023-02-05T01:13:53.105Z,-5.03
2023-02-05T01:16:59.421Z,-5.55
2023-02-05T01:20:05.906Z,-5.06
2023-02-05T01:23:11.066Z,-5.10
2023-02-05T01:26:15.608Z,-5.55
2023-02-05T01:29:20.477Z,-5.41
2023-02-05T01:32:25.048Z,-5.28
2023-02-05T01:35:30.022Z,-5.29
2023-02-05T01:38:34.516Z,-5.66
2023-02-05T01:41:42.609Z,-6.23
2023-02-05T01:45:32.588Z,-5.93
2023-02-05T01:48:45.872Z,-5.91
2023-02-05T01:51:51.698Z,-5.72
2023-02-05T01:54:56.957Z,-5.86
2023-02-05T01:58:02.174Z,-5.92
2023-02-05T02:01:09.432Z,-5.81
2023-02-05T02:04:27.806Z,-5.61
2023-02-05T02:07:32.412Z,-5.51
2023-02-05T02:10:38.163Z,-5.52
2023-02-05T02:13:46.562Z,-6.15
2023-02-05T02:16:53.344Z,-6.45
2023-02-05T02:20:06.080Z,-5.74
2023-02-05T02:23:38.282Z,-5.73
2023-02-05T02:26:51.825Z,-5.69
2023-02-05T02:30:19.655Z,-5.39
2023-02-05T02:33:41.299Z,-5.41
2023-02-05T02:36:59.248Z,-5.31
2023-02-05T02:40:15.811Z,-5.66
2023-02-05T02:43:44.960Z,-5.65
2023-02-05T02:46:55.312Z,-5.58
2023-02-05T02:50:06.481Z,-5.55
2023-02-05T02:53:20.222Z,-5.39
2023-02-05T02:56:27.718Z,-5.98
2023-02-05T02:59:37.840Z,-5.71
2023-02-05T03:02:45.392Z,-6.45
2023-02-05T03:05:52.782Z,-6.02
2023-02-05T03:09:14.366Z,-6.36
2023-02-05T03:12:20.043Z,-6.61
2023-02-05T03:15:25.258Z,-6.57
2023-02-05T03:18:30.626Z,-6.17
2023-02-05T03:21:41.769Z,-6.70
2023-02-05T03:24:46.341Z,-6.35
2023-02-05T03:27:53.744Z,-6.34
2023-02-05T03:31:06.767Z,-6.39
2023-02-05T03:34:47.198Z,-6.92
2023-02-05T03:38:10.229Z,-6.46
2023-02-05T03:41:52.448Z,-6.36
2023-02-05T03:45:19.900Z,-6.72
2023-02-05T03:48:40.315Z,-6.45
2023-02-05T03:52:07.577Z,-7.12
2023-02-05T03:55:38.100Z,-7.07
2023-02-05T03:58:48.487Z,-6.67
2023-02-05T04:01:54.814Z,-6.01
2023-02-05T04:05:00.296Z,-6.18
2023-02-05T04:08:05.657Z,-6.27
2023-02-05T04:11:16.786Z,-6.16
2023-02-05T04:14:23.050Z,-6.60
2023-02-05T04:17:28.498Z,-6.56
2023-02-05T04:20:33.173Z,-6.39
2023-02-05T04:23:38.362Z,-6.62
2023-02-05T04:26:43.150Z,-6.72
2023-02-05T04:29:47.846Z,-6.82
2023-02-05T04:32:52.824Z,-6.58
2023-02-05T04:36:00.634Z,-6.37
2023-02-05T04:39:05.294Z,-6.43
2023-02-05T04:42:10.197Z,-6.41
2023-02-05T04:45:14.842Z,-6.34
2023-02-05T04:48:21.158Z,-6.43
2023-02-05T04:51:25.683Z,-6.79
2023-02-05T04:54:30.246Z,-6.62
2023-02-05T04:57:34.747Z,-6.48
2023-02-05T05:00:39.336Z,-6.46
2023-02-05T05:03:43.792Z,-6.81
2023-02-05T05:06:48.329Z,-6.67
2023-02-05T05:09:52.827Z,-6.64
2023-02-05T05:12:57.373Z,-6.82
2023-02-05T05:16:02.721Z,-6.93
2023-02-05T05:19:07.319Z,-6.67
2023-02-05T05:22:11.868Z,-7.45
2023-02-05T05:25:16.521Z,-7.10
2023-02-05T05:28:21.076Z,-7.38
2023-02-05T05:31:26.029Z,-7.04
2023-02-05T05:34:30.577Z,-6.80
2023-02-05T05:37:35.067Z,-7.12
2023-02-05T05:40:58.553Z,-6.90
2023-02-05T05:44:03.239Z,-6.81
2023-02-05T05:47:07.802Z,-7.16
2023-02-05T05:50:13.764Z,-7.66
2023-02-05T05:53:18.761Z,-7.59
2023-02-05T05:56:23.568Z,-7.28
2023-02-05T05:59:28.025Z,-7.56
2023-02-05T06:02:32.587Z,-7.42
2023-02-05T06:05:37.349Z,-7.64
2023-02-05T06:08:41.862Z,-7.79
2023-02-05T06:11:46.370Z,-7.50
2023-02-05T06:14:50.889Z,-8.11
2023-02-05T06:17:55.474Z,-8.23
2023-02-05T06:21:01.570Z,-8.27
2023-02-05T06:24:06.335Z,-7.65
2023-02-05T06:27:11.018Z,-7.58
2023-02-05T06:30:15.560Z,-7.44
2023-02-05T06:33:21.575Z,-7.43
2023-02-05T06:36:26.122Z,-7.30
2023-02-05T06:39:31.403Z,-7.32
2023-02-05T06:42:35.991Z,-7.36
2023-02-05T06:45:40.527Z,-7.20
2023-02-05T06:48:45.086Z,-7.44
2023-02-05T06:51:49.597Z,-7.12
2023-02-05T06:54:55.427Z,-7.04
2023-02-05T06:57:59.950Z,-6.99
2023-02-05T07:01:04.563Z,-6.85
2023-02-05T07:04:09.253Z,-6.76
2023-02-05T07:07:15.646Z,-3.36
2023-02-05T07:10:20.311Z,-2.23
2023-02-05T07:13:25.046Z,-3.46
2023-02-05T07:16:30.534Z,-4.81
2023-02-05T07:19:36.257Z,-5.71
2023-02-05T07:22:40.799Z,-5.04
2023-02-05T07:25:46.201Z,-5.81
2023-02-05T07:28:50.800Z,-5.61
2023-02-05T07:31:55.420Z,-5.48
2023-02-05T07:34:59.962Z,-5.61
2023-02-05T07:38:05.282Z,-5.74
2023-02-05T07:41:12.869Z,-5.29
2023-02-05T07:44:18.447Z,-5.34
2023-02-05T07:47:22.902Z,-5.40
2023-02-05T07:50:27.600Z,-5.57
2023-02-05T07:53:32.132Z,-5.35
2023-02-05T07:56:36.732Z,-5.02
2023-02-05T07:59:41.942Z,-4.83
2023-02-05T08:02:46.644Z,-5.18
2023-02-05T08:05:51.232Z,-5.26
2023-02-05T08:08:56.154Z,-5.15
2023-02-05T08:12:00.691Z,-4.95
2023-02-05T08:15:05.994Z,-5.08
2023-02-05T08:18:10.587Z,-4.45
2023-02-05T08:21:15.454Z,-4.83
2023-02-05T08:24:19.960Z,-4.55
2023-02-05T08:27:24.546Z,-4.50
2023-02-05T08:30:29.127Z,-4.62
2023-02-05T08:33:33.601Z,-4.31
2023-02-05T08:36:38.150Z,-4.53
2023-02-05T08:39:42.698Z,-4.33
2023-02-05T08:42:49.201Z,-4.11
2023-02-05T08:45:55.618Z,-4.00
2023-02-05T08:49:00.303Z,-3.42
2023-02-05T08:52:04.934Z,-3.59
2023-02-05T08:55:09.465Z,-3.21
2023-02-05T08:58:15.572Z,-3.43
2023-02-05T09:01:20.276Z,-3.32
2023-02-05T09:04:25.377Z,-2.49
2023-02-05T09:07:31.015Z,-2.71
2023-02-05T09:10:35.769Z,-2.31
2023-02-05T09:13:40.840Z,-2.72
2023-02-05T09:16:45.591Z,-2.31
2023-02-05T09:19:51.462Z,-2.48
2023-02-05T09:22:56.099Z,-1.48
2023-02-05T09:26:00.814Z,-2.07
2023-02-05T09:29:05.315Z,-2.18
2023-02-05T09:32:09.805Z,-2.14
2023-02-05T09:35:14.287Z,-2.11
2023-02-05T09:38:18.888Z,-2.40
2023-02-05T09:41:29.503Z,-2.20
2023-02-05T09:44:35.412Z,-1.74
2023-02-05T09:47:49.453Z,-1.77
2023-02-05T09:50:57.953Z,-1.54
2023-02-05T09:54:15.102Z,-1.42
2023-02-05T09:57:38.281Z,-0.76
2023-02-05T10:00:47.461Z,-0.64
2023-02-05T10:03:59.830Z,-0.00
2023-02-05T10:07:16.076Z,-0.82
2023-02-05T10:10:26.323Z,-0.35
2023-02-05T10:13:42.999Z,0.97
2023-02-05T10:17:16.646Z,0.45
2023-02-05T10:20:34.445Z,0.52
2023-02-05T10:23:40.455Z,0.62
2023-02-05T10:26:52.816Z,0.90
2023-02-05T10:30:05.534Z,1.04
2023-02-05T10:33:36.270Z,0.94
2023-02-05T10:36:40.986Z,1.78
2023-02-05T10:39:47.395Z,1.95
2023-02-05T10:43:05.184Z,1.67
2023-02-05T10:46:13.434Z,2.41
2023-02-05T10:49:39.610Z,2.07
2023-02-05T10:52:44.171Z,2.59
2023-02-05T10:55:49.240Z,2.40
2023-02-05T10:58:56.183Z,3.09
2023-02-05T11:02:05.391Z,1.94
2023-02-05T11:05:22.034Z,2.32
2023-02-05T11:08:36.180Z,2.08
2023-02-05T11:11:40.993Z,2.28
2023-02-05T11:14:46.558Z,2.34
2023-02-05T11:17:54.284Z,2.31
2023-02-05T11:21:01.748Z,2.46
2023-02-05T11:24:07.387Z,2.49
2023-02-05T11:27:25.827Z,2.83
2023-02-05T11:30:50.748Z,2.87
2023-02-05T11:34:08.026Z,3.26
2023-02-05T11:37:18.756Z,2.81
2023-02-05T11:40:28.111Z,3.07
2023-02-05T11:43:35.873Z,3.06
2023-02-05T11:46:45.248Z,3.32
2023-02-05T11:49:51.859Z,3.93
2023-02-05T11:53:07.637Z,3.19
2023-02-05T11:56:21.477Z,3.18
2023-02-05T11:59:26.562Z,2.43
2023-02-05T12:02:34.509Z,3.53
2023-02-05T12:05:42.413Z,4.00
2023-02-05T12:08:52.517Z,4.78
2023-02-05T12:12:25.627Z,5.70
2023-02-05T12:15:40.912Z,5.17
2023-02-05T12:19:20.319Z,6.16
2023-02-05T12:22:36.400Z,5.50
2023-02-05T12:26:15.774Z,4.50
2023-02-05T12:29:49.470Z,4.49
2023-02-05T12:33:00.526Z,4.67
2023-02-05T12:36:51.229Z,4.48
2023-02-05T12:40:09.566Z,5.05
2023-02-05T12:43:22.884Z,5.03
2023-02-05T12:46:42.544Z,4.85
2023-02-05T12:50:10.573Z,4.90
2023-02-05T12:53:43.157Z,4.44
2023-02-05T12:57:02.542Z,4.65
2023-02-05T13:00:15.051Z,4.68
2023-02-05T13:03:19.506Z,4.38
2023-02-05T13:06:44.542Z,5.18
2023-02-05T13:10:02.719Z,5.64
2023-02-05T13:13:14.742Z,3.72
2023-02-05T13:16:22.168Z,3.95
2023-02-05T13:19:32.099Z,3.45
2023-02-05T13:23:11.017Z,3.72
2023-02-05T13:26:36.267Z,3.77
2023-02-05T13:29:51.294Z,2.81
2023-02-05T13:32:59.839Z,2.98
2023-02-05T13:36:29.660Z,2.92
2023-02-05T13:39:57.081Z,2.58
2023-02-05T13:43:50.950Z,3.23
2023-02-05T13:47:18.061Z,3.33
2023-02-05T13:50:40.218Z,2.45
2023-02-05T13:54:16.247Z,3.16
2023-02-05T13:57:58.030Z,3.20
2023-02-05T14:01:17.877Z,2.78
2023-02-05T14:04:29.494Z,2.63
2023-02-05T14:07:45.863Z,2.83
2023-02-05T14:11:00.530Z,2.83
2023-02-05T14:14:23.365Z,1.69
2023-02-05T14:17:27.865Z,2.88
2023-02-05T14:20:41.626Z,2.78
2023-02-05T14:23:46.099Z,2.59
2023-02-05T14:26:53.060Z,2.06
2023-02-05T14:30:29.753Z,2.05
2023-02-05T14:33:41.035Z,2.24
2023-02-05T14:36:45.845Z,2.63
2023-02-05T14:39:51.775Z,2.62
2023-02-05T14:43:13.448Z,2.15
2023-02-05T14:46:29.988Z,1.93
2023-02-05T14:49:34.498Z,1.97
2023-02-05T14:52:49.364Z,1.69
2023-02-05T14:55:56.601Z,2.25
2023-02-05T14:59:07.344Z,1.78
2023-02-05T15:02:11.817Z,2.12
2023-02-05T15:05:36.876Z,1.44
2023-02-05T15:08:59.812Z,1.99
2023-02-05T15:12:07.260Z,1.41
2023-02-05T15:15:33.220Z,4.40
2023-02-05T15:18:48.064Z,2.79
2023-02-05T15:21:53.185Z,2.47
2023-02-05T15:24:58.349Z,1.63
2023-02-05T15:28:24.869Z,1.34
2023-02-05T15:31:45.379Z,1.80
2023-02-05T15:35:16.305Z,1.47
2023-02-05T15:38:35.194Z,1.48
2023-02-05T15:41:43.673Z,1.24
2023-02-05T15:44:49.671Z,0.57
2023-02-05T15:48:05.246Z,0.97
2023-02-05T15:51:33.230Z,0.82
2023-02-05T15:54:37.839Z,0.72
2023-02-05T15:57:45.053Z,0.38
2023-02-05T16:00:49.904Z,0.64
2023-02-05T16:03:54.518Z,0.56
2023-02-05T16:06:59.896Z,0.17
2023-02-05T16:10:22.074Z,0.53
2023-02-05T16:13:27.418Z,0.41
2023-02-05T16:16:36.394Z,0.38
2023-02-05T16:19:49.514Z,0.20
2023-02-05T16:23:01.430Z,0.31
2023-02-05T16:26:28.873Z,0.21
2023-02-05T16:29:48.639Z,0.28
2023-02-05T16:32:54.393Z,0.05
2023-02-05T16:36:03.200Z,0.01
2023-02-05T16:39:23.954Z,-0.11
2023-02-05T16:42:43.209Z,-0.34
2023-02-05T16:46:06.745Z,-0.26
2023-02-05T16:49:23.090Z,-0.39
2023-02-05T16:52:30.906Z,-0.41
2023-02-05T16:55:43.325Z,-0.55
2023-02-05T16:58:49.369Z,0.88
2023-02-05T17:01:54.128Z,2.35
2023-02-05T17:05:00.209Z,3.16
2023-02-05T17:08:08.665Z,3.61
2023-02-05T17:11:34.362Z,1.46
2023-02-05T17:14:38.932Z,1.05
2023-02-05T17:17:56.451Z,0.74
2023-02-05T17:21:20.984Z,0.20
2023-02-05T17:24:25.922Z,-0.30
2023-02-05T17:27:35.597Z,-1.06
2023-02-05T17:30:41.964Z,-0.09
2023-02-05T17:33:50.670Z,-1.27
2023-02-05T17:36:55.261Z,-1.43
2023-02-05T17:39:59.761Z,-1.19
2023-02-05T17:43:04.282Z,-1.26
2023-02-05T17:46:13.752Z,-1.42
2023-02-05T17:49:18.246Z,-1.77
2023-02-05T17:52:22.761Z,-1.68
2023-02-05T17:55:27.264Z,-1.76
2023-02-05T17:58:31.858Z,-1.43
2023-02-05T18:01:36.335Z,-1.79
2023-02-05T18:04:44.669Z,-1.68
2023-02-05T18:07:54.928Z,-1.59
2023-02-05T18:10:59.474Z,-1.72
2023-02-05T18:14:04.924Z,-1.77
2023-02-05T18:17:09.542Z,-1.94
2023-02-05T18:20:15.675Z,-2.12
2023-02-05T18:23:28.866Z,-2.51
2023-02-05T18:26:33.757Z,-1.83
2023-02-05T18:29:39.021Z,-1.88
2023-02-05T18:32:43.601Z,-1.81
2023-02-05T18:35:48.060Z,-2.17
2023-02-05T18:38:52.719Z,-1.93
2023-02-05T18:41:58.060Z,-2.07
2023-02-05T18:45:03.466Z,-2.53
2023-02-05T18:48:07.983Z,-2.60
2023-02-05T18:51:15.105Z,-2.32
2023-02-05T18:54:19.743Z,-2.58
2023-02-05T18:57:24.246Z,-2.64
2023-02-05T19:00:28.819Z,-2.69
2023-02-05T19:03:33.348Z,-2.24
2023-02-05T19:06:44.092Z,-2.44
2023-02-05T19:09:50.587Z,-2.43
2023-02-05T19:12:55.138Z,-2.78
2023-02-05T19:16:08.454Z,-2.63
2023-02-05T19:19:14.918Z,-2.82
2023-02-05T19:22:19.490Z,-2.75
2023-02-05T19:25:24.000Z,-2.48
2023-02-05T19:28:28.599Z,0.50
2023-02-05T19:31:35.114Z,1.04
2023-02-05T19:34:43.036Z,0.92
2023-02-05T19:37:47.539Z,-0.65
2023-02-05T19:40:52.104Z,-1.91
2023-02-05T19:43:59.112Z,-2.26
2023-02-05T19:47:03.733Z,-2.56
2023-02-05T19:50:08.458Z,-2.99
2023-02-05T19:53:13.074Z,-3.25
2023-02-05T19:56:22.503Z,-3.25
2023-02-05T19:59:27.517Z,-3.19
2023-02-05T20:02:35.287Z,-2.92
2023-02-05T20:05:39.806Z,-3.44
2023-02-05T20:08:45.935Z,-3.31
2023-02-05T20:11:52.519Z,-2.92
2023-02-05T20:14:57.296Z,-2.93
2023-02-05T20:18:01.798Z,-3.19
2023-02-05T20:21:10.903Z,-3.44
2023-02-05T20:24:18.389Z,-3.78
2023-02-05T20:27:22.956Z,-3.73
2023-02-05T20:30:45.833Z,-3.79
2023-02-05T20:33:50.416Z,-3.73
2023-02-05T20:36:57.606Z,-4.20
2023-02-05T20:40:02.611Z,-4.02
2023-02-05T20:43:09.082Z,-3.92
2023-02-05T20:46:13.668Z,-4.18
2023-02-05T20:49:18.251Z,-4.17
2023-02-05T20:52:22.793Z,-4.46
2023-02-05T20:55:27.471Z,-4.35
2023-02-05T20:58:32.434Z,-4.49
2023-02-05T21:01:40.085Z,-4.54
2023-02-05T21:04:44.661Z,-4.37
2023-02-05T21:07:49.237Z,-4.48
2023-02-05T21:10:54.072Z,-4.37
2023-02-05T21:14:03.458Z,-4.40
2023-02-05T21:17:10.384Z,-4.66
2023-02-05T21:20:15.056Z,-4.71
2023-02-05T21:23:20.685Z,-4.58
2023-02-05T21:26:28.035Z,-4.50
2023-02-05T21:29:32.582Z,-4.40
2023-02-05T21:32:37.140Z,-4.63
2023-02-05T21:35:41.690Z,-4.77
2023-02-05T21:38:46.704Z,-4.63
2023-02-05T21:41:51.438Z,-4.89
2023-02-05T21:44:55.946Z,-5.12
2023-02-05T21:48:00.623Z,-5.17
2023-02-05T21:51:10.902Z,-4.61
2023-02-05T21:54:16.419Z,-4.92
2023-02-05T21:57:21.722Z,-4.96
2023-02-05T22:00:26.238Z,-4.95
2023-02-05T22:03:30.794Z,-5.00
2023-02-05T22:06:36.317Z,-5.20
2023-02-05T22:09:42.182Z,-5.30
2023-02-05T22:12:48.398Z,-4.98
2023-02-05T22:16:02.112Z,-4.72
2023-02-05T22:19:07.680Z,-4.94
2023-02-05T22:22:12.194Z,-5.51
2023-02-05T22:25:16.804Z,-5.06
2023-02-05T22:28:21.363Z,-5.33
2023-02-05T22:31:27.551Z,-5.55
2023-02-05T22:34:32.090Z,-5.22
2023-02-05T22:37:36.615Z,-5.32
2023-02-05T22:40:41.146Z,-5.31
2023-02-05T22:43:47.387Z,-5.25
2023-02-05T22:46:51.930Z,-5.05
2023-02-05T22:49:56.398Z,-5.34
2023-02-05T22:53:00.929Z,-5.58
2023-02-05T22:56:08.394Z,-5.53
2023-02-05T22:59:13.212Z,-5.68
2023-02-05T23:02:17.673Z,-5.66
2023-02-05T23:05:22.196Z,-5.77
2023-02-05T23:08:26.740Z,-5.86
2023-02-05T23:11:32.434Z,-5.65
2023-02-05T23:14:36.966Z,-5.52
2023-02-05T23:17:41.570Z,-5.75
2023-02-05T23:20:46.111Z,-6.01
2023-02-05T23:23:51.348Z,-5.83
2023-02-05T23:26:56.166Z,-5.63
2023-02-05T23:30:00.765Z,-5.51
2023-02-05T23:33:05.287Z,-5.85
2023-02-05T23:36:09.929Z,-6.11
2023-02-05T23:39:14.421Z,-5.96
2023-02-05T23:42:20.622Z,-5.74
2023-02-05T23:45:25.163Z,-5.65
2023-02-05T23:48:29.624Z,-6.17
2023-02-05T23:51:34.676Z,-6.21
2023-02-05T23:54:39.282Z,-6.24
2023-02-05T23:57:43.881Z,-5.92
